LSNO2: Neosho River nr Langley (Spillway)

Data processed at Sat Mar 10 2018 23:14


All information presented herein is the property of the government of the United States of America and may be revised or deleted at any time without prior notice.
Dissemination of this information without the expressed written consent of the Public Affairs Office, Tulsa District U.S. Army Corps of Engineers is strictly prohibited.
These data are gathered electronically and, as presented, have not undergone any form of quality control. These data are not guaranteed to be valid or correct.
Go to home page.
Go to station list.

Upstream stations:

Downstream station:
Previous Day
Next Day
Current Day
    
SHEF ID:       LSNO2     Neosho River (spillway) near Lan
STATION TYPE:  

                STAGE  RIV-FLOW  BAT-LOAD
                   ft       cfs      volt
              Ccp-Rev   Ccp-Rev   Ccp-Rev
(US/Central)
03/08 00:00     15.21     27030     12.65
03/08 01:00     15.29     27422     12.65
03/08 02:00     15.28     27373     12.65
03/08 03:00     15.28     27373     12.57
03/08 04:00     15.32     27569     12.57
03/08 05:00     15.31     27520     12.57
03/08 06:00     15.33     27618     12.57
03/08 07:00     15.35     27716     12.57
03/08 08:00     15.25     27226     12.57
03/08 09:00     15.26     27275     12.73
03/08 10:00     15.30     27471     13.13
03/08 11:00     15.19     26932     13.37
03/08 12:00     15.10     26491     13.53
03/08 13:00     15.03     26148     13.68
03/08 14:00     15.00     26001     13.68
03/08 15:00     14.90     25521     13.68
03/08 16:00     14.84     25233     13.53
03/08 17:00     14.81     25089     13.29
03/08 18:00     14.80     25041     13.13
03/08 19:00     14.86     25329     12.89
03/08 20:00     14.88     25425     12.81
03/08 21:00     14.90     25521     12.73
03/08 22:00     14.94     25713     12.73
03/08 23:00     14.99     25953     12.73